Time;durP1;ratioP1;P1;durP2;ratioP2;P2;SDS_P1;SDS_P2;PMS_P1;PMS_P2;Temp;Humidity;BMP_temperature;BMP_pressure;BME280_temperature;BME280_humidity;BME280_pressure;Samples;Min_cycle;Max_cycle;Signal;HPM_P1;HPM_P2
2023/04/14 00:01:52;;;;;;;2.93;1.20;;;;;;;16.62;42.57;98187.56;6155562;23;20162;-91
2023/04/14 00:04:19;;;;;;;3.80;1.67;;;;;;;16.52;42.47;98180.47;6155897;23;20147;-91
2023/04/14 00:06:46;;;;;;;5.93;2.10;;;;;;;16.46;42.94;98186.28;6129468;23;20182;-91
2023/04/14 00:09:11;;;;;;;3.20;1.37;;;;;;;16.44;42.73;98185.59;6155802;23;20151;-91
2023/04/14 00:11:38;;;;;;;2.87;1.23;;;;;;;16.38;42.80;98186.16;6129791;23;20163;-91
2023/04/14 00:14:04;;;;;;;3.33;1.70;;;;;;;16.47;42.71;98192.41;6130127;23;20177;-91
2023/04/14 00:16:31;;;;;;;4.93;1.70;;;;;;;16.52;42.70;98185.78;6129697;23;20167;-91
2023/04/14 00:18:58;;;;;;;3.90;1.87;;;;;;;16.35;42.98;98189.06;6155901;23;20147;-91
2023/04/14 00:21:25;;;;;;;5.07;1.90;;;;;;;16.39;42.90;98189.63;6129730;23;20653;-91
2023/04/14 00:23:52;;;;;;;2.40;1.30;;;;;;;16.37;42.50;98187.16;6155769;23;20150;-91
2023/04/14 00:26:19;;;;;;;4.30;1.40;;;;;;;16.40;42.73;98193.97;6156070;23;20557;-91
2023/04/14 00:28:46;;;;;;;3.83;1.73;;;;;;;16.46;42.68;98188.09;6130088;23;20158;-91
2023/04/14 00:31:11;;;;;;;6.10;1.43;;;;;;;16.53;42.49;98184.78;6155584;23;20147;-91
2023/04/14 00:33:38;;;;;;;5.67;1.50;;;;;;;16.44;42.42;98175.03;6129603;23;20547;-91
2023/04/14 00:36:05;;;;;;;6.80;1.73;;;;;;;16.38;42.32;98178.22;6129521;23;20158;-91
2023/04/14 00:38:32;;;;;;;1.93;1.30;;;;;;;16.48;42.31;98176.41;6129600;23;20196;-90
2023/04/14 00:40:58;;;;;;;2.57;1.00;;;;;;;16.49;42.50;98183.38;6155700;23;20445;-91
2023/04/14 00:43:24;;;;;;;3.43;1.57;;;;;;;16.51;42.24;98176.13;6129492;23;20177;-90
2023/04/14 00:45:51;;;;;;;3.90;1.60;;;;;;;16.49;42.45;98175.44;6129497;23;20271;-91
2023/04/14 00:48:18;;;;;;;4.17;1.70;;;;;;;16.50;42.54;98179.75;6155328;23;20161;-91
2023/04/14 00:50:45;;;;;;;3.37;1.40;;;;;;;16.48;42.47;98188.81;6129602;23;20159;-91
2023/04/14 00:53:13;;;;;;;2.83;1.50;;;;;;;16.42;42.52;98190.22;6129691;23;20155;-91
2023/04/14 00:55:40;;;;;;;3.93;1.93;;;;;;;16.38;42.59;98182.66;6131391;23;20154;-91
2023/04/14 00:58:08;;;;;;;3.80;1.60;;;;;;;16.42;42.54;98186.72;6131673;23;20182;-91
2023/04/14 01:00:36;;;;;;;4.03;1.30;;;;;;;16.47;42.32;98180.03;6157017;23;20213;-91
2023/04/14 01:03:03;;;;;;;4.63;1.40;;;;;;;16.50;42.19;98179.75;6157878;23;20182;-91
2023/04/14 01:05:29;;;;;;;5.20;2.37;;;;;;;16.50;42.17;98178.91;6157310;23;20236;-91
2023/04/14 01:07:56;;;;;;;4.37;1.97;;;;;;;16.48;42.44;98171.09;6131185;23;20153;-91
2023/04/14 01:10:29;;;;;;;9.63;2.27;;;;;;;16.48;42.47;98175.59;6131482;23;20166;-90
2023/04/14 01:13:32;;;;;;;6.70;2.17;;;;;;;16.50;42.24;98173.63;6131431;23;20182;-91
2023/04/14 01:16:24;;;;;;;5.77;1.93;;;;;;;16.50;42.01;98177.13;6131171;23;20154;-91
2023/04/14 01:19:05;;;;;;;5.23;1.83;;;;;;;16.59;42.24;98175.44;6131292;23;20487;-91
2023/04/14 01:21:40;;;;;;;4.87;1.43;;;;;;;16.65;42.09;98179.34;6131373;23;20154;-90
2023/04/14 01:24:43;;;;;;;5.07;1.73;;;;;;;16.58;42.16;98172.00;6131664;23;20154;-91
2023/04/14 01:27:20;;;;;;;4.90;1.83;;;;;;;16.29;43.49;98176.44;6157050;23;20272;-91
2023/04/14 01:30:13;;;;;;;3.97;1.40;;;;;;;16.12;43.32;98177.09;6131196;23;20509;-91
2023/04/14 01:32:43;;;;;;;2.77;1.30;;;;;;;16.10;43.35;98170.28;6131218;23;20169;-91
2023/04/14 01:35:32;;;;;;;3.93;2.27;;;;;;;16.10;43.55;98170.28;6131199;23;20476;-91
2023/04/14 01:38:05;;;;;;;5.93;2.00;;;;;;;16.04;43.52;98170.88;6157055;23;20131;-90
2023/04/14 01:40:33;;;;;;;7.37;1.57;;;;;;;15.99;43.71;98177.38;6132186;23;20178;-91
2023/04/14 01:43:07;;;;;;;4.87;1.40;;;;;;;16.01;44.04;98174.59;6131223;23;20155;-91
2023/04/14 01:45:43;;;;;;;3.27;1.63;;;;;;;15.91;44.61;98171.09;6131050;23;20201;-90
2023/04/14 01:48:11;;;;;;;5.70;1.80;;;;;;;15.72;45.52;98171.09;6131147;23;20594;-90
2023/04/14 01:50:41;;;;;;;7.00;2.50;;;;;;;15.59;45.61;98181.06;6131113;23;20201;-90
2023/04/14 01:53:10;;;;;;;4.90;2.10;;;;;;;15.64;45.71;98169.13;6156597;23;20165;-90
2023/04/14 01:55:39;;;;;;;5.43;2.23;;;;;;;15.54;46.04;98175.34;6156611;23;20582;-90
2023/04/14 01:58:08;;;;;;;9.87;3.13;;;;;;;15.42;46.81;98173.75;6147724;23;20199;-91
2023/04/14 02:00:37;;;;;;;3.83;1.73;;;;;;;15.37;47.20;98182.06;6101607;23;20200;-91
2023/04/14 02:03:05;;;;;;;6.77;2.27;;;;;;;15.55;46.65;98175.22;6101914;23;20159;-91
2023/04/14 02:05:35;;;;;;;5.33;2.37;;;;;;;15.36;47.60;98175.09;6126815;23;20179;-91
2023/04/14 02:08:05;;;;;;;4.47;1.90;;;;;;;15.10;48.38;98174.72;6127399;23;20458;-91
2023/04/14 02:10:34;;;;;;;6.53;2.23;;;;;;;15.10;49.07;98171.25;6101963;23;20594;-91
2023/04/14 02:13:02;;;;;;;5.07;1.93;;;;;;;15.16;49.29;98174.22;6101321;23;20579;-91
2023/04/14 02:15:31;;;;;;;4.13;2.17;;;;;;;15.10;50.07;98163.34;6127413;23;20144;-90
2023/04/14 02:17:59;;;;;;;4.77;1.70;;;;;;;15.17;50.19;98169.78;6127104;23;20151;-91
2023/04/14 02:20:28;;;;;;;5.13;2.43;;;;;;;15.28;50.70;98165.22;6126928;23;20230;-91
2023/04/14 02:22:55;;;;;;;5.17;2.40;;;;;;;15.34;51.04;98167.34;6101401;23;20222;-91
2023/04/14 02:25:25;;;;;;;3.90;2.00;;;;;;;15.27;51.97;98166.22;6101318;23;20172;-91
2023/04/14 02:28:04;;;;;;;5.20;2.40;;;;;;;15.10;53.54;98161.53;6101305;23;20226;-90
2023/04/14 02:30:37;;;;;;;5.07;2.13;;;;;;;15.06;54.02;98173.34;6127210;23;20547;-91
2023/04/14 02:33:08;;;;;;;4.33;2.17;;;;;;;15.17;54.77;98167.13;6102434;23;20151;-90
2023/04/14 02:35:46;;;;;;;5.40;1.57;;;;;;;15.37;54.71;98174.16;6101172;23;20171;-91
2023/04/14 02:38:25;;;;;;;3.80;2.10;;;;;;;15.59;53.70;98159.94;6101289;23;20163;-90
2023/04/14 02:40:52;;;;;;;8.23;2.50;;;;;;;15.71;53.85;98158.84;6101153;23;20154;-90
2023/04/14 02:43:23;;;;;;;12.80;2.50;;;;;;;15.75;53.26;98161.06;6126830;23;20594;-91
2023/04/14 02:45:51;;;;;;;6.47;2.77;;;;;;;15.70;53.90;98158.00;6101078;23;20186;-91
2023/04/14 02:48:22;;;;;;;7.37;3.40;;;;;;;15.52;56.64;98164.91;6126888;23;20574;-91
2023/04/14 02:50:52;;;;;;;6.43;2.70;;;;;;;15.29;59.33;98173.97;6101156;23;20147;-90
2023/04/14 02:53:21;;;;;;;5.87;3.10;;;;;;;15.33;60.14;98170.94;6101101;23;20185;-91
2023/04/14 02:55:50;;;;;;;7.47;3.20;;;;;;;15.36;60.49;98175.94;6100282;23;20575;-90
2023/04/14 02:58:16;;;;;;;7.17;3.03;;;;;;;15.18;61.52;98171.44;6129408;23;20227;-90
2023/04/14 03:00:43;;;;;;;8.43;3.07;;;;;;;15.28;61.41;98169.66;6126118;23;20176;-90
2023/04/14 03:03:14;;;;;;;6.00;3.30;;;;;;;15.35;61.50;98170.81;6126625;23;20177;-90
2023/04/14 03:05:42;;;;;;;6.90;3.03;;;;;;;15.22;62.48;98170.22;6126855;23;20258;-90
2023/04/14 03:08:15;;;;;;;6.73;3.13;;;;;;;15.12;63.93;98177.25;6100855;23;20256;-89
2023/04/14 03:10:45;;;;;;;8.03;3.50;;;;;;;15.17;64.12;98172.41;6126584;23;20238;-90
2023/04/14 03:13:14;;;;;;;8.27;3.90;;;;;;;15.22;64.25;98167.56;6100809;23;20158;-90
2023/04/14 03:15:42;;;;;;;6.53;4.30;;;;;;;15.11;65.01;98171.13;6126358;23;20658;-90
2023/04/14 03:18:11;;;;;;;10.83;4.07;;;;;;;15.16;65.20;98162.81;6101160;23;20557;-90
2023/04/14 03:20:40;;;;;;;6.00;3.30;;;;;;;15.24;65.08;98163.00;6127143;23;20171;-89
2023/04/14 03:23:10;;;;;;;11.30;4.10;;;;;;;15.29;65.58;98164.25;6101182;23;20191;-90
2023/04/14 03:25:37;;;;;;;8.27;4.17;;;;;;;15.29;65.45;98161.63;6126710;23;20171;-90
2023/04/14 03:28:08;;;;;;;5.37;3.33;;;;;;;15.20;66.10;98159.75;6126354;23;20159;-90
2023/04/14 03:30:40;;;;;;;7.10;3.37;;;;;;;15.24;65.79;98160.34;6100780;23;20585;-91
2023/04/14 03:33:11;;;;;;;10.60;4.00;;;;;;;15.23;65.63;98156.88;6126725;23;20143;-90
2023/04/14 03:35:39;;;;;;;9.87;3.27;;;;;;;15.27;65.29;98166.22;6100744;23;20525;-90
2023/04/14 03:38:07;;;;;;;8.33;3.80;;;;;;;15.36;64.87;98162.75;6100686;23;20159;-90
2023/04/14 03:40:38;;;;;;;6.43;3.80;;;;;;;15.47;64.21;98151.28;6100769;23;20221;-90
2023/04/14 03:43:12;;;;;;;7.70;3.97;;;;;;;15.51;64.01;98154.50;6100595;23;20170;-90
2023/04/14 03:45:38;;;;;;;12.77;4.77;;;;;;;15.55;63.87;98155.88;6100516;23;20202;-90
2023/04/14 03:48:11;;;;;;;8.27;4.30;;;;;;;15.65;63.48;98162.00;6126865;23;20152;-90
2023/04/14 03:50:41;;;;;;;7.27;3.23;;;;;;;15.65;62.79;98169.94;6126769;23;20143;-91
2023/04/14 03:53:11;;;;;;;7.97;3.77;;;;;;;15.71;62.53;98166.78;6100655;23;20151;-91
2023/04/14 03:55:41;;;;;;;7.37;2.70;;;;;;;15.69;62.51;98161.63;6100580;23;20159;-91
2023/04/14 03:58:10;;;;;;;9.77;3.87;;;;;;;15.71;62.44;98162.31;6126519;23;20203;-91
2023/04/14 04:00:37;;;;;;;8.87;3.63;;;;;;;15.74;62.33;98166.50;6100533;23;20534;-91
2023/04/14 04:03:04;;;;;;;8.00;3.67;;;;;;;15.79;62.24;98165.13;6126481;23;20155;-91
2023/04/14 04:05:33;;;;;;;9.63;4.63;;;;;;;15.70;62.92;98168.56;6126035;23;20178;-90
2023/04/14 04:08:04;;;;;;;7.57;3.50;;;;;;;15.66;62.93;98176.91;6126356;23;20152;-91
2023/04/14 04:10:33;;;;;;;8.83;3.87;;;;;;;15.71;62.73;98174.69;6100384;23;20163;-90
2023/04/14 04:13:01;;;;;;;8.53;2.93;;;;;;;15.70;62.76;98180.94;6100783;23;20234;-91
2023/04/14 04:15:30;;;;;;;9.63;3.73;;;;;;;15.82;62.35;98187.78;6126106;23;20175;-91
2023/04/14 04:17:59;;;;;;;6.50;2.97;;;;;;;15.97;61.87;98187.25;6100405;23;20487;-91
2023/04/14 04:20:28;;;;;;;9.13;3.60;;;;;;;15.95;61.82;98188.38;6125636;23;20504;-90
2023/04/14 04:22:56;;;;;;;8.00;3.27;;;;;;;16.06;61.99;98174.19;6126125;23;20154;-90
2023/04/14 04:25:23;;;;;;;10.33;3.90;;;;;;;15.99;62.29;98180.03;6126011;23;20587;-90
2023/04/14 04:27:50;;;;;;;9.03;3.40;;;;;;;16.05;62.86;98181.28;6100481;23;20572;-90
2023/04/14 04:30:18;;;;;;;9.60;4.03;;;;;;;15.89;63.86;98195.03;6100988;23;20174;-91
2023/04/14 04:32:46;;;;;;;10.27;4.50;;;;;;;15.74;64.83;98190.28;6102476;23;20163;-91
2023/04/14 04:35:11;;;;;;;12.57;4.30;;;;;;;15.90;64.96;98191.44;6101385;23;20166;-90
2023/04/14 04:37:40;;;;;;;7.80;3.77;;;;;;;15.96;65.38;98190.03;6127960;23;20147;-89
2023/04/14 04:40:07;;;;;;;7.13;3.70;;;;;;;16.14;65.19;98193.66;6102478;23;20163;-89
2023/04/14 04:42:33;;;;;;;9.27;3.77;;;;;;;16.21;66.26;98194.78;6103007;23;20202;-89
2023/04/14 04:44:59;;;;;;;8.33;3.87;;;;;;;16.95;64.87;98184.44;6102298;23;20242;-90
2023/04/14 04:47:24;;;;;;;10.00;4.20;;;;;;;17.85;60.95;98174.84;6127842;23;20182;-89
2023/04/14 04:49:51;;;;;;;9.57;4.27;;;;;;;19.15;56.43;98179.47;6128274;23;20153;-89
2023/04/14 04:52:17;;;;;;;8.43;3.77;;;;;;;19.84;53.53;98177.44;6127763;23;20493;-90
2023/04/14 04:54:44;;;;;;;9.53;3.77;;;;;;;21.01;49.89;98170.91;6102092;23;20489;-90
2023/04/14 04:57:11;;;;;;;8.23;3.50;;;;;;;21.90;46.69;98163.47;6127678;23;20163;-90
2023/04/14 04:59:38;;;;;;;5.57;2.97;;;;;;;22.54;44.79;98156.00;6126427;23;20265;-91
2023/04/14 05:02:05;;;;;;;8.77;3.30;;;;;;;23.09;43.64;98167.19;6157271;23;20204;-90
2023/04/14 05:04:31;;;;;;;7.33;3.07;;;;;;;23.82;42.12;98161.00;6157193;23;20151;-90
2023/04/14 05:06:57;;;;;;;10.20;3.40;;;;;;;23.94;41.63;98153.34;6157050;23;20605;-90
2023/04/14 05:09:23;;;;;;;6.10;2.70;;;;;;;23.23;42.47;98168.22;6131393;23;20420;-92
2023/04/14 05:11:50;;;;;;;10.77;3.53;;;;;;;22.42;44.51;98168.97;6157095;23;20158;-91
2023/04/14 05:14:16;;;;;;;7.47;2.83;;;;;;;21.89;46.14;98174.28;6157479;23;20171;-91
2023/04/14 05:16:43;;;;;;;6.67;2.73;;;;;;;21.89;46.90;98191.16;6157154;23;20175;-90
2023/04/14 05:19:08;;;;;;;5.80;3.13;;;;;;;22.11;46.38;98181.53;6157413;23;20230;-91
2023/04/14 05:21:34;;;;;;;8.13;3.10;;;;;;;22.28;46.43;98184.91;6157757;23;20193;-91
2023/04/14 05:23:59;;;;;;;6.10;3.10;;;;;;;22.36;46.47;98180.34;6157121;23;20147;-91
2023/04/14 05:26:25;;;;;;;7.40;2.80;;;;;;;22.54;46.08;98180.03;6156988;23;20179;-91
2023/04/14 05:28:51;;;;;;;5.13;2.83;;;;;;;21.91;46.77;98188.28;6158017;23;20230;-91
2023/04/14 05:31:16;;;;;;;7.97;3.10;;;;;;;21.54;47.79;98178.25;6131284;23;20186;-90
2023/04/14 05:33:41;;;;;;;10.97;2.87;;;;;;;21.02;49.25;98185.88;6157010;23;20151;-91
2023/04/14 05:36:08;;;;;;;9.53;2.73;;;;;;;21.04;49.71;98183.06;6131109;23;20210;-91
2023/04/14 05:38:41;;;;;;;6.70;2.73;;;;;;;20.73;50.47;98189.06;6157312;23;20154;-89
2023/04/14 05:41:08;;;;;;;11.20;3.63;;;;;;;20.82;50.63;98173.91;6156005;23;20147;-91
2023/04/14 05:43:33;;;;;;;12.57;3.57;;;;;;;21.05;50.65;98182.88;6131104;23;20528;-90
2023/04/14 05:46:01;;;;;;;7.97;3.40;;;;;;;20.94;50.61;98174.41;6156553;23;20265;-91
2023/04/14 05:48:29;;;;;;;8.53;3.73;;;;;;;20.68;51.51;98179.91;6157178;23;20147;-91
2023/04/14 05:50:56;;;;;;;7.50;2.83;;;;;;;20.34;53.21;98172.09;6157396;23;20218;-91
2023/04/14 05:53:23;;;;;;;7.03;3.00;;;;;;;20.33;53.36;98158.97;6157070;23;20144;-91
2023/04/14 05:55:50;;;;;;;6.93;3.43;;;;;;;20.58;53.18;98153.47;6156699;23;20143;-91
2023/04/14 05:58:16;;;;;;;6.47;3.30;;;;;;;20.71;52.59;98144.97;6125776;23;20222;-91
2023/04/14 06:00:41;;;;;;;8.67;3.33;;;;;;;20.55;52.79;98144.97;6127892;23;20171;-90
2023/04/14 06:03:08;;;;;;;6.43;3.20;;;;;;;20.37;53.09;98144.31;6125948;23;20529;-91
2023/04/14 06:05:34;;;;;;;8.43;3.10;;;;;;;20.47;53.44;98140.47;6127403;23;20619;-91
2023/04/14 06:08:00;;;;;;;10.33;3.53;;;;;;;20.59;52.90;98138.31;6125895;23;20151;-87
2023/04/14 06:10:27;;;;;;;8.23;3.30;;;;;;;20.87;53.09;98142.28;6127370;23;20159;-92
2023/04/14 06:12:52;;;;;;;7.23;2.97;;;;;;;21.02;51.92;98142.41;6125958;23;20168;-91
2023/04/14 06:15:18;;;;;;;6.03;3.00;;;;;;;21.16;50.68;98136.41;6123832;23;20629;-89
2023/04/14 06:17:46;;;;;;;8.17;2.77;;;;;;;21.09;50.95;98136.28;6125705;23;20199;-90
2023/04/14 06:20:13;;;;;;;7.40;3.03;;;;;;;21.13;50.27;98134.91;6126174;23;20166;-92
2023/04/14 06:22:39;;;;;;;8.17;3.40;;;;;;;21.31;49.83;98132.88;6125120;23;20246;-89
2023/04/14 06:25:06;;;;;;;11.67;3.43;;;;;;;21.85;48.98;98127.63;6126948;23;20156;-91
2023/04/14 06:27:32;;;;;;;6.40;2.80;;;;;;;22.11;47.94;98136.16;6125355;23;20322;-90
2023/04/14 06:29:58;;;;;;;9.43;3.53;;;;;;;22.45;47.64;98130.38;6126785;23;20230;-91
2023/04/14 06:32:24;;;;;;;7.87;3.23;;;;;;;22.58;46.39;98136.78;6125495;23;20156;-90
2023/04/14 06:34:50;;;;;;;8.37;3.20;;;;;;;22.66;46.37;98124.38;6127171;23;20155;-91
2023/04/14 06:37:16;;;;;;;8.43;3.07;;;;;;;22.87;45.78;98129.84;6124867;23;20166;-91
2023/04/14 06:39:41;;;;;;;6.33;2.80;;;;;;;22.94;45.99;98136.13;6124171;23;20218;-90
2023/04/14 06:42:07;;;;;;;8.37;3.63;;;;;;;23.03;45.89;98140.38;6124954;23;20179;-89
2023/04/14 06:44:32;;;;;;;6.13;3.03;;;;;;;23.15;45.19;98142.41;6125111;23;20159;-91
2023/04/14 06:46:58;;;;;;;8.93;3.80;;;;;;;23.09;45.70;98151.16;6124578;23;20322;-90
2023/04/14 06:49:23;;;;;;;8.97;3.77;;;;;;;22.94;46.14;98155.66;6126101;23;20151;-90
2023/04/14 06:51:49;;;;;;;7.37;3.30;;;;;;;22.62;47.11;98159.47;6124834;23;20179;-89
2023/04/14 06:54:15;;;;;;;9.80;3.17;;;;;;;22.81;47.01;98157.28;6123814;23;20159;-90
2023/04/14 06:56:40;;;;;;;9.93;3.73;;;;;;;22.91;47.06;98169.38;6123693;23;20155;-90
2023/04/14 06:59:05;;;;;;;6.10;3.07;;;;;;;22.59;47.44;98159.78;6124274;23;20210;-88
2023/04/14 07:01:31;;;;;;;10.73;3.10;;;;;;;22.55;47.63;98174.53;6124853;23;20152;-88
2023/04/14 07:03:56;;;;;;;10.13;3.40;;;;;;;22.29;49.36;98162.53;6124749;23;20147;-91
2023/04/14 07:06:23;;;;;;;8.67;3.83;;;;;;;22.15;48.66;98168.63;6123019;23;20626;-89
2023/04/14 07:08:48;;;;;;;10.00;3.67;;;;;;;22.02;49.41;98167.38;6123432;23;20156;-89
2023/04/14 07:11:14;;;;;;;8.67;3.53;;;;;;;21.84;49.82;98165.97;6124001;23;20162;-89
2023/04/14 07:13:40;;;;;;;8.13;3.77;;;;;;;21.67;50.47;98172.38;6124844;23;20235;-90
2023/04/14 07:16:07;;;;;;;12.20;4.97;;;;;;;21.65;50.99;98179.72;6124678;23;20152;-90
2023/04/14 07:18:32;;;;;;;8.73;3.87;;;;;;;21.35;51.79;98187.50;6125016;23;20170;-90
2023/04/14 07:20:59;;;;;;;9.73;3.87;;;;;;;21.50;51.80;98184.13;6123146;23;20160;-90
2023/04/14 07:23:24;;;;;;;7.53;3.60;;;;;;;21.49;52.29;98182.47;6122289;23;20163;-91
2023/04/14 07:25:56;;;;;;;7.33;3.73;;;;;;;21.38;52.27;98173.00;6122062;23;20187;-90
2023/04/14 07:28:22;;;;;;;7.33;3.10;;;;;;;21.20;52.92;98170.53;6122588;23;20167;-89
2023/04/14 07:30:49;;;;;;;8.43;3.50;;;;;;;20.75;53.78;98162.28;6123221;23;20298;-89
2023/04/14 07:33:17;;;;;;;8.00;2.80;;;;;;;20.68;54.55;98175.41;6123423;23;20151;-89
2023/04/14 07:35:52;;;;;;;8.47;3.20;;;;;;;20.56;54.64;98170.59;6124276;23;20178;-89
2023/04/14 07:38:18;;;;;;;9.03;3.27;;;;;;;20.52;55.08;98174.63;6124192;23;20148;-90
2023/04/14 07:40:44;;;;;;;10.93;3.20;;;;;;;20.33;55.44;98165.13;6125673;23;20556;-90
2023/04/14 07:43:10;;;;;;;9.33;2.90;;;;;;;20.08;56.53;98158.88;6125808;23;20158;-90
2023/04/14 07:45:36;;;;;;;9.43;3.33;;;;;;;20.16;56.83;98156.25;6123997;23;20159;-90
2023/04/14 07:48:01;;;;;;;8.27;3.57;;;;;;;20.07;57.19;98154.56;6125612;23;20496;-89
2023/04/14 07:50:27;;;;;;;8.23;3.47;;;;;;;19.88;58.15;98159.34;6125699;23;20152;-91
2023/04/14 07:52:52;;;;;;;11.07;3.93;;;;;;;20.03;57.65;98139.94;6124356;23;20488;-91
2023/04/14 07:55:18;;;;;;;8.33;3.17;;;;;;;20.15;57.55;98146.59;6124310;23;20174;-90
2023/04/14 07:57:44;;;;;;;11.90;3.50;;;;;;;20.02;57.85;98143.56;6125499;23;20148;-89
2023/04/14 08:00:10;;;;;;;5.93;3.17;;;;;;;20.01;58.12;98138.44;6126014;23;20207;-89
2023/04/14 08:02:36;;;;;;;7.40;2.97;;;;;;;19.96;57.85;98135.44;6125222;23;20230;-88
2023/04/14 08:05:02;;;;;;;7.93;3.30;;;;;;;19.82;58.14;98160.00;6099913;23;20167;-90
2023/04/14 08:07:28;;;;;;;9.77;3.23;;;;;;;19.66;58.72;98155.47;6125455;23;20482;-91
2023/04/14 08:09:53;;;;;;;7.60;2.73;;;;;;;19.63;58.70;98162.94;6125094;23;20159;-90
2023/04/14 08:12:19;;;;;;;7.80;2.77;;;;;;;19.75;58.87;98164.31;6125753;23;20162;-90
2023/04/14 08:14:46;;;;;;;6.97;3.07;;;;;;;19.78;59.17;98166.66;6125546;23;20234;-92
2023/04/14 08:17:12;;;;;;;7.87;3.93;;;;;;;19.88;59.10;98170.81;6124872;23;20214;-90
2023/04/14 08:19:38;;;;;;;11.33;2.73;;;;;;;19.96;58.54;98170.00;6125689;23;20152;-90
2023/04/14 08:22:03;;;;;;;7.13;2.93;;;;;;;20.08;57.75;98161.56;6099830;23;20159;-90
2023/04/14 08:24:30;;;;;;;11.80;3.10;;;;;;;20.16;57.95;98161.56;6125432;23;20179;-92
2023/04/14 08:26:57;;;;;;;19.40;9.47;;;;;;;20.46;57.13;98159.28;6125081;23;20218;-90
2023/04/14 08:29:23;;;;;;;8.60;2.93;;;;;;;20.56;56.93;98149.31;6100053;23;20168;-91
2023/04/14 08:31:48;;;;;;;8.93;3.30;;;;;;;20.55;56.91;98155.63;6100023;23;20576;-92
2023/04/14 08:34:14;;;;;;;10.23;3.17;;;;;;;20.57;57.01;98148.31;6125156;23;20148;-90
2023/04/14 08:36:40;;;;;;;11.80;3.43;;;;;;;20.40;57.23;98141.31;6124680;23;20144;-90
2023/04/14 08:39:06;;;;;;;5.97;3.43;;;;;;;20.54;57.18;98138.84;6124607;23;20163;-90
2023/04/14 08:41:37;;;;;;;10.67;3.00;;;;;;;20.45;57.05;98146.97;6125348;23;20156;-91
2023/04/14 08:44:03;;;;;;;12.27;3.50;;;;;;;20.28;58.22;98134.66;6099773;23;20238;-91
2023/04/14 08:46:30;;;;;;;8.73;3.10;;;;;;;20.16;58.60;98131.47;6099744;23;20623;-91
2023/04/14 08:49:06;;;;;;;8.23;3.30;;;;;;;20.48;58.22;98115.53;6124456;23;20160;-91
2023/04/14 08:51:36;;;;;;;13.83;3.47;;;;;;;20.49;58.43;98129.69;6125000;23;20132;-92
2023/04/14 08:54:06;;;;;;;5.73;2.53;;;;;;;20.41;58.36;98109.22;6099656;23;20660;-90
2023/04/14 08:56:40;;;;;;;6.10;2.80;;;;;;;20.55;58.18;98115.69;6125575;23;20170;-91
2023/04/14 08:59:07;;;;;;;12.87;3.67;;;;;;;20.47;57.80;98113.03;6117649;23;20638;-93
2023/04/14 09:01:34;;;;;;;14.23;5.10;;;;;;;20.21;57.67;98108.69;6128911;23;20159;-91
2023/04/14 09:04:02;;;;;;;16.97;5.50;;;;;;;20.20;58.74;98111.53;6155026;23;20147;-91
2023/04/14 09:06:28;;;;;;;14.17;3.83;;;;;;;20.20;58.09;98114.19;6154042;23;20175;-90
2023/04/14 09:08:54;;;;;;;8.43;4.03;;;;;;;20.16;58.46;98103.03;6154095;23;20158;-90
2023/04/14 09:11:19;;;;;;;7.77;3.17;;;;;;;20.20;58.52;98122.16;6128925;23;20162;-91
2023/04/14 09:13:47;;;;;;;7.20;3.23;;;;;;;20.01;58.90;98118.00;6129386;23;20155;-92
2023/04/14 09:16:16;;;;;;;8.17;2.57;;;;;;;19.87;58.89;98123.94;6129685;23;20163;-90
2023/04/14 09:18:43;;;;;;;8.63;2.57;;;;;;;19.79;58.93;98118.59;6156579;23;20151;-91
2023/04/14 09:21:09;;;;;;;7.10;3.03;;;;;;;19.65;59.55;98113.94;6156652;23;20529;-90
2023/04/14 09:23:36;;;;;;;8.53;2.93;;;;;;;19.55;59.62;98132.66;6130704;23;20155;-91
2023/04/14 09:26:02;;;;;;;6.57;2.57;;;;;;;19.53;59.31;98139.97;6156207;23;20203;-89
2023/04/14 09:28:27;;;;;;;14.47;2.77;;;;;;;19.58;59.51;98123.53;6131184;23;20151;-89
2023/04/14 09:30:55;;;;;;;7.83;2.37;;;;;;;19.53;59.35;98133.81;6131055;23;20155;-90
2023/04/14 09:37:05;;;;;;;10.63;2.83;;;;;;;19.63;59.52;98150.47;6157899;23;20276;-87
2023/04/14 09:39:32;;;;;;;7.30;2.40;;;;;;;19.85;59.56;98138.41;6131171;23;20147;-84
2023/04/14 09:41:58;;;;;;;5.00;2.07;;;;;;;19.69;59.17;98139.19;6156297;23;20178;-83
2023/04/14 09:44:24;;;;;;;9.10;2.80;;;;;;;19.78;59.81;98137.38;6130769;23;20155;-86
2023/04/14 09:47:04;;;;;;;5.70;1.87;;;;;;;19.99;58.91;98151.06;6131076;23;20285;-85
2023/04/14 09:49:30;;;;;;;14.73;3.00;;;;;;;20.01;57.84;98149.06;6156733;23;20282;-86
2023/04/14 09:52:08;;;;;;;11.80;2.30;;;;;;;20.07;58.10;98148.44;6131053;23;20183;-86
2023/04/14 09:54:34;;;;;;;6.43;2.33;;;;;;;20.11;58.10;98147.09;6130993;23;20159;-86
2023/04/14 09:57:01;;;;;;;6.07;2.33;;;;;;;20.22;58.19;98146.78;6132020;23;20226;-85
2023/04/14 09:59:33;;;;;;;8.00;2.17;;;;;;;20.56;57.06;98138.66;6135313;23;20578;-85
2023/04/14 10:02:03;;;;;;;5.60;2.47;;;;;;;20.49;56.79;98133.16;6126247;23;20171;-85
2023/04/14 10:04:28;;;;;;;7.07;1.63;;;;;;;20.35;56.33;98155.13;6101743;23;20254;-83
2023/04/14 10:06:55;;;;;;;10.83;2.40;;;;;;;20.30;56.05;98143.31;6127103;23;20635;-83
2023/04/14 10:09:21;;;;;;;5.00;1.50;;;;;;;20.32;56.39;98136.00;6101694;23;20151;-83
2023/04/14 10:12:09;;;;;;;16.67;2.43;;;;;;;20.44;56.61;98134.69;6127199;23;20159;-84
2023/04/14 10:14:35;;;;;;;4.83;1.90;;;;;;;20.71;56.33;98132.47;6127527;23;20528;-86
2023/04/14 10:17:01;;;;;;;7.90;2.60;;;;;;;20.62;56.52;98143.31;6102206;23;20152;-85
2023/04/14 10:19:28;;;;;;;8.70;1.80;;;;;;;20.77;55.33;98141.63;6100932;23;20230;-85
2023/04/14 10:21:54;;;;;;;8.23;2.43;;;;;;;21.00;55.86;98129.25;6100962;23;20215;-85
2023/04/14 10:24:20;;;;;;;4.80;1.80;;;;;;;21.31;55.58;98162.19;6127061;23;20148;-86
2023/04/14 10:26:48;;;;;;;5.57;1.80;;;;;;;21.46;53.06;98164.97;6100968;23;20191;-86
2023/04/14 10:29:14;;;;;;;6.93;2.00;;;;;;;21.59;53.17;98161.75;6102085;23;20206;-85
2023/04/14 10:31:44;;;;;;;4.03;1.57;;;;;;;21.77;53.42;98178.34;6101686;23;20179;-84
2023/04/14 10:34:14;;;;;;;3.60;1.60;;;;;;;21.98;52.35;98165.25;6101412;23;20167;-87
2023/04/14 10:36:41;;;;;;;5.77;1.23;;;;;;;22.33;51.01;98175.34;6127329;23;20175;-85
2023/04/14 10:39:10;;;;;;;4.13;1.63;;;;;;;22.49;50.04;98185.91;6127304;23;20152;-86
2023/04/14 10:41:46;;;;;;;6.87;1.73;;;;;;;22.46;50.52;98202.28;6101496;23;20156;-87
2023/04/14 10:44:33;;;;;;;7.77;2.30;;;;;;;22.87;51.01;98189.47;6102294;23;20540;-86
2023/04/14 10:47:03;;;;;;;4.63;1.23;;;;;;;23.07;49.23;98192.47;6127466;23;20172;-85
2023/04/14 10:49:33;;;;;;;6.40;2.03;;;;;;;22.97;48.93;98202.59;6127440;23;20152;-84
2023/04/14 10:52:05;;;;;;;4.90;1.43;;;;;;;22.90;48.73;98199.81;6100791;23;20147;-86
2023/04/14 10:54:52;;;;;;;7.87;1.60;;;;;;;22.97;49.17;98202.59;6100821;23;20155;-85
2023/04/14 10:57:21;;;;;;;4.47;1.87;;;;;;;23.09;49.88;98201.94;6100662;23;20254;-85
2023/04/14 10:59:47;;;;;;;11.63;1.70;;;;;;;22.95;48.41;98189.41;6125576;23;20178;-85
2023/04/14 11:02:32;;;;;;;5.37;1.87;;;;;;;22.63;48.89;98193.19;6156487;23;20242;-85
2023/04/14 11:05:02;;;;;;;6.53;1.87;;;;;;;22.68;49.54;98195.31;6129312;23;20559;-85
2023/04/14 11:07:30;;;;;;;8.70;1.97;;;;;;;22.83;50.24;98195.34;6129810;23;20217;-86
2023/04/14 11:10:15;;;;;;;5.93;1.60;;;;;;;22.66;49.62;98202.69;6152351;23;20155;-85
2023/04/14 11:12:42;;;;;;;4.67;1.50;;;;;;;22.38;49.48;98215.69;6131776;23;20154;-84
2023/04/14 11:15:08;;;;;;;4.80;1.73;;;;;;;21.97;51.65;98217.78;6127547;23;20566;-85
2023/04/14 11:17:39;;;;;;;7.90;2.63;;;;;;;22.08;52.50;98213.91;6126961;23;20478;-85
2023/04/14 11:20:19;;;;;;;7.20;2.07;;;;;;;22.23;52.04;98221.97;6129428;23;20244;-86
2023/04/14 11:22:48;;;;;;;5.83;1.70;;;;;;;21.99;52.34;98207.75;6130064;23;20174;-85
2023/04/14 11:25:17;;;;;;;9.53;2.87;;;;;;;22.26;53.06;98216.28;6129023;23;20159;-83
2023/04/14 11:27:46;;;;;;;5.90;1.60;;;;;;;22.38;51.74;98210.34;6129754;23;20274;-84
2023/04/14 11:30:21;;;;;;;8.23;2.47;;;;;;;22.42;51.27;98217.03;6151795;23;20178;-86
2023/04/14 11:32:50;;;;;;;8.63;3.37;;;;;;;22.40;51.26;98219.03;6155758;23;20139;-86
2023/04/14 11:35:19;;;;;;;7.90;2.60;;;;;;;22.35;51.40;98216.06;6129442;23;20155;-85
2023/04/14 11:37:46;;;;;;;5.20;1.53;;;;;;;22.10;51.24;98211.03;6154708;23;20147;-83
2023/04/14 11:40:14;;;;;;;5.50;1.53;;;;;;;21.91;52.27;98205.13;6130031;23;20155;-85
2023/04/14 11:42:51;;;;;;;6.07;2.33;;;;;;;22.06;52.71;98183.06;6156827;23;20174;-85